sensor_id;sensor_type;location;lat;lon;timestamp;temperature;humidity
26081;DHT22;13991;51.174;4.438;2022-11-15T00:04:07;10.80;99.90
26081;DHT22;13991;51.174;4.438;2022-11-15T00:10:22;10.80;99.90
26081;DHT22;13991;51.174;4.438;2022-11-15T00:13:15;10.80;99.90
26081;DHT22;13991;51.174;4.438;2022-11-15T00:16:11;11.00;99.90
26081;DHT22;13991;51.174;4.438;2022-11-15T00:19:22;11.00;99.90
26081;DHT22;13991;51.174;4.438;2022-11-15T00:22:43;11.00;99.90
26081;DHT22;13991;51.174;4.438;2022-11-15T00:36:10;11.30;99.90
26081;DHT22;13991;51.174;4.438;2022-11-15T00:39:06;11.30;99.90
26081;DHT22;13991;51.174;4.438;2022-11-15T00:42:03;11.40;99.90
26081;DHT22;13991;51.174;4.438;2022-11-15T00:45:02;11.60;99.90
26081;DHT22;13991;51.174;4.438;2022-11-15T00:48:05;11.70;99.90
26081;DHT22;13991;51.174;4.438;2022-11-15T00:51:28;11.60;99.90
26081;DHT22;13991;51.174;4.438;2022-11-15T00:58:23;12.00;99.90
26081;DHT22;13991;51.174;4.438;2022-11-15T01:01:41;12.00;99.90
26081;DHT22;13991;51.174;4.438;2022-11-15T01:08:31;12.20;99.90
26081;DHT22;13991;51.174;4.438;2022-11-15T01:15:11;12.30;99.90
26081;DHT22;13991;51.174;4.438;2022-11-15T01:21:42;12.40;99.90
26081;DHT22;13991;51.174;4.438;2022-11-15T01:24:54;12.50;99.90
26081;DHT22;13991;51.174;4.438;2022-11-15T01:27:29;12.50;99.90
26081;DHT22;13991;51.174;4.438;2022-11-15T01:30:33;12.40;99.90
26081;DHT22;13991;51.174;4.438;2022-11-15T01:33:21;12.40;99.90
26081;DHT22;13991;51.174;4.438;2022-11-15T01:39:09;12.60;99.90
26081;DHT22;13991;51.174;4.438;2022-11-15T01:45:20;12.50;99.90
26081;DHT22;13991;51.174;4.438;2022-11-15T01:48:30;12.40;99.90
26081;DHT22;13991;51.174;4.438;2022-11-15T01:58:04;12.60;99.90
26081;DHT22;13991;51.174;4.438;2022-11-15T02:04:32;12.60;99.90
26081;DHT22;13991;51.174;4.438;2022-11-15T02:08:28;12.60;99.90
26081;DHT22;13991;51.174;4.438;2022-11-15T02:14:42;12.70;99.90
26081;DHT22;13991;51.174;4.438;2022-11-15T02:21:26;12.90;99.90
26081;DHT22;13991;51.174;4.438;2022-11-15T02:45:22;12.80;99.90
26081;DHT22;13991;51.174;4.438;2022-11-15T02:52:38;12.70;99.90
26081;DHT22;13991;51.174;4.438;2022-11-15T02:55:49;12.80;99.90
26081;DHT22;13991;51.174;4.438;2022-11-15T03:08:54;12.80;99.90
26081;DHT22;13991;51.174;4.438;2022-11-15T03:16:00;12.70;99.90
26081;DHT22;13991;51.174;4.438;2022-11-15T03:22:27;12.60;99.90
26081;DHT22;13991;51.174;4.438;2022-11-15T03:25:40;12.80;99.90
26081;DHT22;13991;51.174;4.438;2022-11-15T03:29:07;12.90;99.90
26081;DHT22;13991;51.174;4.438;2022-11-15T03:32:12;12.90;99.90
26081;DHT22;13991;51.174;4.438;2022-11-15T03:35:31;12.90;99.90
26081;DHT22;13991;51.174;4.438;2022-11-15T03:38:47;12.90;99.90
26081;DHT22;13991;51.174;4.438;2022-11-15T03:45:30;13.00;99.90
26081;DHT22;13991;51.174;4.438;2022-11-15T03:48:46;13.00;99.90
26081;DHT22;13991;51.174;4.438;2022-11-15T03:52:07;13.10;99.90
26081;DHT22;13991;51.174;4.438;2022-11-15T03:58:39;13.10;99.90
26081;DHT22;13991;51.174;4.438;2022-11-15T04:02:11;13.00;99.90
26081;DHT22;13991;51.174;4.438;2022-11-15T04:05:15;13.10;99.90
26081;DHT22;13991;51.174;4.438;2022-11-15T04:08:40;13.00;99.90
26081;DHT22;13991;51.174;4.438;2022-11-15T04:11:53;13.00;99.90
26081;DHT22;13991;51.174;4.438;2022-11-15T04:15:24;13.00;99.90
26081;DHT22;13991;51.174;4.438;2022-11-15T04:18:40;12.80;99.90
26081;DHT22;13991;51.174;4.438;2022-11-15T04:21:16;12.80;99.90
26081;DHT22;13991;51.174;4.438;2022-11-15T04:24:29;12.80;99.90
26081;DHT22;13991;51.174;4.438;2022-11-15T04:34:07;12.60;99.90
26081;DHT22;13991;51.174;4.438;2022-11-15T04:37:19;12.70;99.90
26081;DHT22;13991;51.174;4.438;2022-11-15T04:40:09;12.70;99.90
26081;DHT22;13991;51.174;4.438;2022-11-15T04:42:49;12.70;99.90
26081;DHT22;13991;51.174;4.438;2022-11-15T04:45:22;12.80;99.90
26081;DHT22;13991;51.174;4.438;2022-11-15T04:48:49;12.70;99.90
26081;DHT22;13991;51.174;4.438;2022-11-15T04:52:17;12.70;99.90
26081;DHT22;13991;51.174;4.438;2022-11-15T04:58:28;12.70;99.90
26081;DHT22;13991;51.174;4.438;2022-11-15T05:01:29;12.70;99.90
26081;DHT22;13991;51.174;4.438;2022-11-15T05:07:47;12.60;99.90
26081;DHT22;13991;51.174;4.438;2022-11-15T05:11:28;12.60;99.90
26081;DHT22;13991;51.174;4.438;2022-11-15T05:14:49;12.70;99.90
26081;DHT22;13991;51.174;4.438;2022-11-15T05:25:25;12.60;99.90
26081;DHT22;13991;51.174;4.438;2022-11-15T05:28:14;12.60;99.90
26081;DHT22;13991;51.174;4.438;2022-11-15T05:31:26;12.50;99.90
26081;DHT22;13991;51.174;4.438;2022-11-15T05:34:28;12.50;99.90
26081;DHT22;13991;51.174;4.438;2022-11-15T05:38:20;12.40;99.90
26081;DHT22;13991;51.174;4.438;2022-11-15T05:41:07;12.30;99.90
26081;DHT22;13991;51.174;4.438;2022-11-15T05:44:12;12.40;99.90
26081;DHT22;13991;51.174;4.438;2022-11-15T05:47:33;12.20;99.90
26081;DHT22;13991;51.174;4.438;2022-11-15T05:53:50;12.10;99.90
26081;DHT22;13991;51.174;4.438;2022-11-15T05:56:48;12.10;99.90
26081;DHT22;13991;51.174;4.438;2022-11-15T06:03:11;12.00;99.90
26081;DHT22;13991;51.174;4.438;2022-11-15T06:13:36;12.00;99.90
26081;DHT22;13991;51.174;4.438;2022-11-15T06:34:25;11.70;99.90
26081;DHT22;13991;51.174;4.438;2022-11-15T06:37:30;11.90;99.90
26081;DHT22;13991;51.174;4.438;2022-11-15T06:47:51;11.90;99.90
26081;DHT22;13991;51.174;4.438;2022-11-15T06:54:33;11.70;99.90
26081;DHT22;13991;51.174;4.438;2022-11-15T06:57:31;11.50;99.90
26081;DHT22;13991;51.174;4.438;2022-11-15T07:00:47;11.60;99.90
26081;DHT22;13991;51.174;4.438;2022-11-15T07:03:44;11.40;99.90
26081;DHT22;13991;51.174;4.438;2022-11-15T07:07:18;11.40;99.90
26081;DHT22;13991;51.174;4.438;2022-11-15T07:10:11;11.40;99.90
26081;DHT22;13991;51.174;4.438;2022-11-15T07:23:28;11.10;99.90
26081;DHT22;13991;51.174;4.438;2022-11-15T07:26:55;11.10;99.90
26081;DHT22;13991;51.174;4.438;2022-11-15T07:33:39;11.20;99.90
26081;DHT22;13991;51.174;4.438;2022-11-15T07:37:17;11.20;99.90
26081;DHT22;13991;51.174;4.438;2022-11-15T07:40:56;11.20;99.90
26081;DHT22;13991;51.174;4.438;2022-11-15T07:44:24;11.30;99.90
26081;DHT22;13991;51.174;4.438;2022-11-15T08:01:20;11.40;99.90
26081;DHT22;13991;51.174;4.438;2022-11-15T08:08:08;11.30;99.90
26081;DHT22;13991;51.174;4.438;2022-11-15T08:11:43;11.30;99.90
26081;DHT22;13991;51.174;4.438;2022-11-15T08:25:04;11.50;99.90
26081;DHT22;13991;51.174;4.438;2022-11-15T08:45:23;11.80;99.90
26081;DHT22;13991;51.174;4.438;2022-11-15T08:52:09;12.00;99.90
26081;DHT22;13991;51.174;4.438;2022-11-15T09:36:02;12.90;99.90
26081;DHT22;13991;51.174;4.438;2022-11-15T10:09:54;13.20;99.90
26081;DHT22;13991;51.174;4.438;2022-11-15T10:13:28;13.20;99.90
26081;DHT22;13991;51.174;4.438;2022-11-15T10:23:21;13.40;99.90
26081;DHT22;13991;51.174;4.438;2022-11-15T10:30:11;13.60;99.90
26081;DHT22;13991;51.174;4.438;2022-11-15T10:40:26;13.90;99.90
26081;DHT22;13991;51.174;4.438;2022-11-15T12:05:02;14.50;99.90
26081;DHT22;13991;51.174;4.438;2022-11-15T12:42:57;14.40;99.90
26081;DHT22;13991;51.174;4.438;2022-11-15T13:19:42;14.50;99.90
26081;DHT22;13991;51.174;4.438;2022-11-15T16:52:20;13.30;99.90
26081;DHT22;13991;51.174;4.438;2022-11-15T16:54:54;13.30;99.90
26081;DHT22;13991;51.174;4.438;2022-11-15T17:01:22;13.40;99.90
26081;DHT22;13991;51.174;4.438;2022-11-15T17:03:50;13.30;99.90
26081;DHT22;13991;51.174;4.438;2022-11-15T17:16:31;13.30;99.90
26081;DHT22;13991;51.174;4.438;2022-11-15T17:18:58;13.20;99.90
26081;DHT22;13991;51.174;4.438;2022-11-15T17:21:24;13.30;99.90
26081;DHT22;13991;51.174;4.438;2022-11-15T17:23:58;13.40;99.90
26081;DHT22;13991;51.174;4.438;2022-11-15T17:26:26;13.30;99.90
26081;DHT22;13991;51.174;4.438;2022-11-15T17:28:55;13.30;99.90
26081;DHT22;13991;51.174;4.438;2022-11-15T17:33:56;13.30;99.90
26081;DHT22;13991;51.174;4.438;2022-11-15T17:36:25;13.30;99.90
26081;DHT22;13991;51.174;4.438;2022-11-15T17:38:50;13.40;99.90
26081;DHT22;13991;51.174;4.438;2022-11-15T17:41:18;13.40;99.90
26081;DHT22;13991;51.174;4.438;2022-11-15T17:44:05;13.30;99.90
26081;DHT22;13991;51.174;4.438;2022-11-15T17:46:31;13.30;99.90
26081;DHT22;13991;51.174;4.438;2022-11-15T17:48:59;13.40;99.90
26081;DHT22;13991;51.174;4.438;2022-11-15T17:51:31;13.40;99.90
26081;DHT22;13991;51.174;4.438;2022-11-15T18:08:40;13.50;99.90
26081;DHT22;13991;51.174;4.438;2022-11-15T18:11:20;13.50;99.90
26081;DHT22;13991;51.174;4.438;2022-11-15T18:13:57;13.50;99.90
26081;DHT22;13991;51.174;4.438;2022-11-15T18:16:27;13.50;99.90
26081;DHT22;13991;51.174;4.438;2022-11-15T18:18:56;13.40;99.90
26081;DHT22;13991;51.174;4.438;2022-11-15T18:24:01;13.40;99.90
26081;DHT22;13991;51.174;4.438;2022-11-15T18:26:28;13.40;99.90
26081;DHT22;13991;51.174;4.438;2022-11-15T18:29:04;13.40;99.90
26081;DHT22;13991;51.174;4.438;2022-11-15T18:31:31;13.30;99.90
26081;DHT22;13991;51.174;4.438;2022-11-15T18:34:17;13.40;99.90
26081;DHT22;13991;51.174;4.438;2022-11-15T18:44:34;13.40;99.90
26081;DHT22;13991;51.174;4.438;2022-11-15T18:47:00;13.50;99.90
26081;DHT22;13991;51.174;4.438;2022-11-15T18:49:27;13.40;99.90
26081;DHT22;13991;51.174;4.438;2022-11-15T18:52:01;13.40;99.90
26081;DHT22;13991;51.174;4.438;2022-11-15T18:54:28;13.50;99.90
26081;DHT22;13991;51.174;4.438;2022-11-15T18:56:57;13.50;99.90
26081;DHT22;13991;51.174;4.438;2022-11-15T20:01:33;13.70;99.90
26081;DHT22;13991;51.174;4.438;2022-11-15T20:04:08;13.70;99.90
26081;DHT22;13991;51.174;4.438;2022-11-15T20:14:29;13.60;99.90
26081;DHT22;13991;51.174;4.438;2022-11-15T20:22:06;13.70;99.90
26081;DHT22;13991;51.174;4.438;2022-11-15T20:24:32;13.80;99.90
26081;DHT22;13991;51.174;4.438;2022-11-15T20:26:59;13.80;99.90
26081;DHT22;13991;51.174;4.438;2022-11-15T20:29:25;13.80;99.90
26081;DHT22;13991;51.174;4.438;2022-11-15T20:31:51;13.70;99.90
26081;DHT22;13991;51.174;4.438;2022-11-15T20:34:16;13.70;99.90
26081;DHT22;13991;51.174;4.438;2022-11-15T20:36:42;13.70;99.90
26081;DHT22;13991;51.174;4.438;2022-11-15T20:39:08;13.70;99.90
26081;DHT22;13991;51.174;4.438;2022-11-15T20:41:34;13.70;99.90
26081;DHT22;13991;51.174;4.438;2022-11-15T20:44:03;13.70;99.90
26081;DHT22;13991;51.174;4.438;2022-11-15T20:46:29;13.70;99.90
26081;DHT22;13991;51.174;4.438;2022-11-15T20:48:58;13.70;99.90
26081;DHT22;13991;51.174;4.438;2022-11-15T20:51:26;13.80;99.90
26081;DHT22;13991;51.174;4.438;2022-11-15T20:53:52;13.70;99.90
26081;DHT22;13991;51.174;4.438;2022-11-15T20:56:20;13.70;99.90
26081;DHT22;13991;51.174;4.438;2022-11-15T20:58:46;13.90;99.90
26081;DHT22;13991;51.174;4.438;2022-11-15T21:01:17;13.80;99.90
26081;DHT22;13991;51.174;4.438;2022-11-15T21:03:44;13.70;99.90
26081;DHT22;13991;51.174;4.438;2022-11-15T21:06:10;13.70;99.90
26081;DHT22;13991;51.174;4.438;2022-11-15T21:08:36;13.70;99.90
26081;DHT22;13991;51.174;4.438;2022-11-15T21:11:20;13.70;99.90
26081;DHT22;13991;51.174;4.438;2022-11-15T21:14:04;13.70;99.90
26081;DHT22;13991;51.174;4.438;2022-11-15T21:16:31;13.70;99.90
26081;DHT22;13991;51.174;4.438;2022-11-15T21:18:58;13.70;99.90
26081;DHT22;13991;51.174;4.438;2022-11-15T21:21:24;13.70;99.90
26081;DHT22;13991;51.174;4.438;2022-11-15T21:23:53;13.70;99.90
26081;DHT22;13991;51.174;4.438;2022-11-15T21:26:22;13.70;99.90
26081;DHT22;13991;51.174;4.438;2022-11-15T21:28:47;13.70;99.90
26081;DHT22;13991;51.174;4.438;2022-11-15T21:31:13;13.70;99.90
26081;DHT22;13991;51.174;4.438;2022-11-15T21:33:39;13.80;99.90
26081;DHT22;13991;51.174;4.438;2022-11-15T21:36:05;13.70;99.90
26081;DHT22;13991;51.174;4.438;2022-11-15T21:38:32;13.70;99.90
26081;DHT22;13991;51.174;4.438;2022-11-15T21:41:02;13.80;99.90
26081;DHT22;13991;51.174;4.438;2022-11-15T21:43:29;13.80;99.90
26081;DHT22;13991;51.174;4.438;2022-11-15T21:46:01;13.60;99.90
26081;DHT22;13991;51.174;4.438;2022-11-15T21:48:29;13.70;99.90
26081;DHT22;13991;51.174;4.438;2022-11-15T21:51:06;13.70;99.90
26081;DHT22;13991;51.174;4.438;2022-11-15T21:53:33;13.80;99.90
26081;DHT22;13991;51.174;4.438;2022-11-15T21:55:59;13.80;99.90
26081;DHT22;13991;51.174;4.438;2022-11-15T21:58:26;13.80;99.90
26081;DHT22;13991;51.174;4.438;2022-11-15T22:00:55;13.80;99.90
26081;DHT22;13991;51.174;4.438;2022-11-15T22:03:40;13.70;99.90
26081;DHT22;13991;51.174;4.438;2022-11-15T22:06:06;13.80;99.90
26081;DHT22;13991;51.174;4.438;2022-11-15T22:08:32;13.70;99.90
26081;DHT22;13991;51.174;4.438;2022-11-15T22:10:58;13.80;99.90
26081;DHT22;13991;51.174;4.438;2022-11-15T22:13:25;13.90;99.90
26081;DHT22;13991;51.174;4.438;2022-11-15T22:15:51;13.90;99.90
26081;DHT22;13991;51.174;4.438;2022-11-15T22:18:28;13.90;99.90
26081;DHT22;13991;51.174;4.438;2022-11-15T22:21:00;13.80;99.90
26081;DHT22;13991;51.174;4.438;2022-11-15T22:23:28;13.90;99.90
26081;DHT22;13991;51.174;4.438;2022-11-15T22:25:55;13.80;99.90
26081;DHT22;13991;51.174;4.438;2022-11-15T22:28:21;13.80;99.90
26081;DHT22;13991;51.174;4.438;2022-11-15T22:30:49;13.80;99.90
26081;DHT22;13991;51.174;4.438;2022-11-15T22:33:16;13.80;99.90
26081;DHT22;13991;51.174;4.438;2022-11-15T22:35:45;13.80;99.90
26081;DHT22;13991;51.174;4.438;2022-11-15T22:38:14;13.80;99.90
26081;DHT22;13991;51.174;4.438;2022-11-15T22:43:14;13.80;99.90
26081;DHT22;13991;51.174;4.438;2022-11-15T22:46:07;13.80;99.90
26081;DHT22;13991;51.174;4.438;2022-11-15T22:48:35;13.70;99.90
26081;DHT22;13991;51.174;4.438;2022-11-15T22:51:02;13.70;99.90
26081;DHT22;13991;51.174;4.438;2022-11-15T22:53:28;13.70;99.90
26081;DHT22;13991;51.174;4.438;2022-11-15T22:55:59;13.70;99.90
26081;DHT22;13991;51.174;4.438;2022-11-15T22:58:26;13.70;99.90
26081;DHT22;13991;51.174;4.438;2022-11-15T23:00:56;13.80;99.90
26081;DHT22;13991;51.174;4.438;2022-11-15T23:03:24;13.80;99.90
26081;DHT22;13991;51.174;4.438;2022-11-15T23:05:50;13.80;99.90
26081;DHT22;13991;51.174;4.438;2022-11-15T23:08:16;13.80;99.90
26081;DHT22;13991;51.174;4.438;2022-11-15T23:10:43;13.70;99.90
26081;DHT22;13991;51.174;4.438;2022-11-15T23:13:29;13.80;99.90
26081;DHT22;13991;51.174;4.438;2022-11-15T23:16:07;13.80;99.90
26081;DHT22;13991;51.174;4.438;2022-11-15T23:19:08;13.80;99.90
26081;DHT22;13991;51.174;4.438;2022-11-15T23:21:34;13.80;99.90
26081;DHT22;13991;51.174;4.438;2022-11-15T23:24:19;13.70;99.90
26081;DHT22;13991;51.174;4.438;2022-11-15T23:26:47;13.70;99.90
26081;DHT22;13991;51.174;4.438;2022-11-15T23:29:15;13.80;99.90
26081;DHT22;13991;51.174;4.438;2022-11-15T23:31:41;13.80;99.90
26081;DHT22;13991;51.174;4.438;2022-11-15T23:34:29;13.80;99.90
26081;DHT22;13991;51.174;4.438;2022-11-15T23:36:55;13.80;99.90
26081;DHT22;13991;51.174;4.438;2022-11-15T23:39:21;13.80;99.90
26081;DHT22;13991;51.174;4.438;2022-11-15T23:41:47;13.80;99.90
26081;DHT22;13991;51.174;4.438;2022-11-15T23:44:12;13.80;99.90
26081;DHT22;13991;51.174;4.438;2022-11-15T23:46:38;13.80;99.90
26081;DHT22;13991;51.174;4.438;2022-11-15T23:49:04;13.80;99.90
26081;DHT22;13991;51.174;4.438;2022-11-15T23:51:29;13.80;99.90
26081;DHT22;13991;51.174;4.438;2022-11-15T23:53:58;13.80;99.90
26081;DHT22;13991;51.174;4.438;2022-11-15T23:56:24;13.80;99.90
26081;DHT22;13991;51.174;4.438;2022-11-15T23:58:49;13.80;99.90
